Time;durP1;ratioP1;P1;durP2;ratioP2;P2;SDS_P1;SDS_P2;PMS_P1;PMS_P2;Temp;Humidity;BMP_temperature;BMP_pressure;BME280_temperature;BME280_humidity;BME280_pressure;Samples;Min_cycle;Max_cycle;Signal;HPM_P1;HPM_P2
2022/03/27 00:00:05;;;;;;;13.88;9.98;;;12.90;92.40;;;;;;4965667;28;20038;-75
2022/03/27 00:02:40;;;;;;;14.32;10.02;;;12.90;92.60;;;;;;4967467;28;20082;-75
2022/03/27 00:05:10;;;;;;;16.35;11.18;;;12.90;92.70;;;;;;4967655;28;20621;-77
2022/03/27 00:07:38;;;;;;;16.15;11.13;;;12.90;93.00;;;;;;4966900;28;20047;-75
2022/03/27 00:10:09;;;;;;;16.90;10.68;;;12.90;92.70;;;;;;4999377;28;20607;-75
2022/03/27 00:12:37;;;;;;;12.50;9.40;;;12.90;93.00;;;;;;4964335;28;20050;-75
2022/03/27 00:15:09;;;;;;;13.55;9.80;;;12.80;92.70;;;;;;4981030;28;20138;-75
2022/03/27 00:17:37;;;;;;;10.85;8.65;;;12.80;93.00;;;;;;4962866;28;20054;-75
2022/03/27 00:20:09;;;;;;;13.00;9.25;;;12.80;92.50;;;;;;4967659;28;20054;-74
2022/03/27 00:22:38;;;;;;;10.10;8.15;;;12.80;92.80;;;;;;4979849;28;20039;-75
2022/03/27 00:25:09;;;;;;;10.95;7.60;;;12.80;92.70;;;;;;4966640;28;20058;-76
2022/03/27 00:27:37;;;;;;;10.05;7.72;;;12.80;92.40;;;;;;4965923;28;20089;-75
2022/03/27 00:30:09;;;;;;;10.63;7.30;;;12.80;92.50;;;;;;4968833;28;20055;-75
2022/03/27 00:32:38;;;;;;;9.45;7.35;;;12.70;92.50;;;;;;4996876;28;20057;-76
2022/03/27 00:35:07;;;;;;;11.10;7.38;;;12.70;92.30;;;;;;4980457;28;20043;-75
2022/03/27 00:37:35;;;;;;;9.20;7.15;;;12.70;92.40;;;;;;4973366;28;20243;-76
2022/03/27 00:40:04;;;;;;;10.00;7.35;;;12.70;92.50;;;;;;4986740;28;20626;-75
2022/03/27 00:42:34;;;;;;;11.10;7.93;;;12.70;92.60;;;;;;4984676;28;20717;-75
2022/03/27 00:45:02;;;;;;;14.63;8.88;;;12.60;94.50;;;;;;5001088;28;20045;-75
2022/03/27 00:47:30;;;;;;;12.85;9.10;;;12.50;96.20;;;;;;4967446;28;20053;-75
2022/03/27 00:49:58;;;;;;;13.93;8.65;;;12.50;96.70;;;;;;4967609;28;20050;-75
2022/03/27 00:52:26;;;;;;;12.00;8.40;;;12.40;96.70;;;;;;4969406;28;20132;-75
2022/03/27 00:54:55;;;;;;;12.18;8.63;;;12.40;96.70;;;;;;4985167;28;20133;-76
2022/03/27 00:57:23;;;;;;;16.40;8.80;;;12.40;96.70;;;;;;4990113;28;20072;-75
2022/03/27 00:59:53;;;;;;;10.48;7.32;;;12.50;96.70;;;;;;4982458;28;20042;-75
2022/03/27 01:02:21;;;;;;;9.95;7.55;;;12.60;96.60;;;;;;4987175;28;20452;-75
2022/03/27 01:04:52;;;;;;;13.73;7.50;;;12.60;95.50;;;;;;4982673;28;20050;-74
2022/03/27 01:07:20;;;;;;;10.30;7.90;;;12.60;95.30;;;;;;4998503;28;20060;-75
2022/03/27 01:09:49;;;;;;;13.90;7.75;;;12.60;94.70;;;;;;4984755;28;20500;-75
2022/03/27 01:12:24;;;;;;;9.27;6.95;;;12.60;94.60;;;;;;4988215;28;20100;-75
2022/03/27 01:14:54;;;;;;;9.50;6.40;;;12.60;94.60;;;;;;5001283;28;20054;-75
2022/03/27 01:17:25;;;;;;;14.55;6.70;;;12.60;94.20;;;;;;4986078;28;20053;-75
2022/03/27 01:19:54;;;;;;;10.90;6.38;;;12.50;93.80;;;;;;4997775;28;20089;-75
2022/03/27 01:22:24;;;;;;;7.72;6.50;;;12.60;93.80;;;;;;5000251;28;20049;-75
2022/03/27 01:24:53;;;;;;;7.72;5.65;;;12.60;93.70;;;;;;4966871;28;20038;-75
2022/03/27 01:27:21;;;;;;;9.70;6.35;;;12.60;93.80;;;;;;4990037;28;20258;-75
2022/03/27 01:29:49;;;;;;;12.02;5.93;;;12.70;93.50;;;;;;4982453;28;20050;-75
2022/03/27 01:32:17;;;;;;;11.30;6.32;;;12.60;94.10;;;;;;4985811;28;20047;-75
2022/03/27 01:34:47;;;;;;;11.55;6.70;;;12.60;94.70;;;;;;4979120;28;20560;-75
2022/03/27 01:37:16;;;;;;;9.35;6.25;;;12.50;95.80;;;;;;5000974;28;20082;-76
2022/03/27 01:39:45;;;;;;;11.43;7.07;;;12.50;96.50;;;;;;4972937;28;20038;-76
2022/03/27 01:42:13;;;;;;;9.50;6.72;;;12.50;95.60;;;;;;4985899;28;20088;-75
2022/03/27 01:44:41;;;;;;;10.18;6.65;;;12.40;95.40;;;;;;4965825;28;20743;-75
2022/03/27 01:47:09;;;;;;;10.70;6.93;;;12.40;95.20;;;;;;5002028;28;20129;-76
2022/03/27 01:49:40;;;;;;;7.72;6.63;;;12.40;95.30;;;;;;4997662;28;20046;-75
2022/03/27 01:52:08;;;;;;;9.93;6.90;;;12.40;95.10;;;;;;4984020;28;20128;-75
2022/03/27 01:54:36;;;;;;;10.70;6.68;;;12.40;95.20;;;;;;4981103;28;20490;-75
2022/03/27 01:57:05;;;;;;;8.25;6.57;;;12.20;95.70;;;;;;4969127;28;20047;-75
2022/03/27 01:59:35;;;;;;;9.65;6.85;;;12.10;96.00;;;;;;4985042;28;20042;-75
2022/03/27 02:02:03;;;;;;;10.57;6.35;;;12.10;96.10;;;;;;4987815;28;20050;-75
2022/03/27 02:04:31;;;;;;;8.57;6.50;;;12.10;96.30;;;;;;5004297;28;20528;-75
2022/03/27 02:06:59;;;;;;;10.43;7.03;;;12.20;96.30;;;;;;4988740;28;20133;-75
2022/03/27 02:09:27;;;;;;;8.55;6.93;;;12.30;96.20;;;;;;4969259;28;20050;-76
2022/03/27 02:11:55;;;;;;;16.73;7.80;;;12.20;96.50;;;;;;4985859;28;20059;-76
2022/03/27 02:14:26;;;;;;;11.68;8.35;;;12.20;96.60;;;;;;4986696;28;20050;-76
2022/03/27 02:16:54;;;;;;;10.07;7.40;;;12.20;96.70;;;;;;4986958;28;20046;-75
2022/03/27 02:19:22;;;;;;;10.60;7.90;;;12.30;96.60;;;;;;4971378;28;20073;-75
2022/03/27 02:21:51;;;;;;;12.80;7.45;;;12.20;96.70;;;;;;4986293;28;20043;-75
2022/03/27 02:24:19;;;;;;;11.77;7.57;;;12.20;96.70;;;;;;5004203;28;20582;-76
2022/03/27 02:26:49;;;;;;;12.32;7.90;;;12.10;96.70;;;;;;5002848;28;20069;-75
2022/03/27 02:29:18;;;;;;;11.23;7.30;;;12.20;96.70;;;;;;5001999;28;20125;-75
2022/03/27 02:31:47;;;;;;;11.82;7.82;;;12.10;96.70;;;;;;4986880;28;20070;-75
2022/03/27 02:34:16;;;;;;;11.63;7.28;;;12.00;96.70;;;;;;4988048;28;20504;-75
2022/03/27 02:36:44;;;;;;;9.80;6.55;;;12.00;96.70;;;;;;5015027;28;20058;-75
2022/03/27 02:39:12;;;;;;;8.98;6.85;;;12.00;96.70;;;;;;5008050;28;20054;-75
2022/03/27 02:41:45;;;;;;;10.45;7.38;;;12.00;96.70;;;;;;4984794;28;20389;-76
2022/03/27 02:44:14;;;;;;;12.10;7.22;;;12.00;96.70;;;;;;4969451;28;20049;-75
2022/03/27 02:46:43;;;;;;;11.82;7.45;;;12.10;96.70;;;;;;4983830;28;20061;-74
2022/03/27 02:49:12;;;;;;;11.45;7.97;;;12.00;96.70;;;;;;5004448;28;20057;-75
2022/03/27 02:51:42;;;;;;;11.07;8.18;;;12.00;96.70;;;;;;4985061;28;20050;-75
2022/03/27 02:54:10;;;;;;;12.18;8.75;;;12.00;96.70;;;;;;4971323;28;20468;-75
2022/03/27 02:56:39;;;;;;;11.95;8.50;;;12.00;96.70;;;;;;4986582;28;20049;-75
2022/03/27 02:59:08;;;;;;;10.63;7.93;;;11.90;96.70;;;;;;4987837;28;20058;-75
2022/03/27 03:01:36;;;;;;;14.32;9.52;;;11.90;96.70;;;;;;4984868;28;20141;-75
2022/03/27 03:04:05;;;;;;;14.40;8.07;;;11.90;96.70;;;;;;4989639;28;20054;-75
2022/03/27 03:06:35;;;;;;;12.65;8.40;;;11.90;96.70;;;;;;4985728;28;20053;-76
2022/03/27 03:09:03;;;;;;;10.45;7.28;;;11.80;96.70;;;;;;4972028;28;20511;-75
2022/03/27 03:11:32;;;;;;;9.55;7.43;;;11.70;96.70;;;;;;4969385;28;20066;-75
2022/03/27 03:14:00;;;;;;;9.48;7.45;;;11.70;96.70;;;;;;4969858;28;20578;-75
2022/03/27 03:16:49;;;;;;;10.68;7.00;;;11.70;96.70;;;;;;5001132;28;20053;-75
2022/03/27 03:19:18;;;;;;;8.57;6.57;;;11.60;96.70;;;;;;4987006;28;20069;-75
2022/03/27 03:21:47;;;;;;;9.98;6.60;;;11.60;96.70;;;;;;5005095;28;20066;-75
2022/03/27 03:24:16;;;;;;;9.10;6.10;;;11.40;96.70;;;;;;5001486;28;20058;-75
2022/03/27 03:26:44;;;;;;;13.75;6.25;;;11.40;96.70;;;;;;4970928;28;20301;-75
2022/03/27 03:29:13;;;;;;;8.75;5.95;;;11.40;96.70;;;;;;4984757;28;20054;-75
2022/03/27 03:31:41;;;;;;;8.68;6.30;;;11.40;96.70;;;;;;5002835;28;20046;-75
2022/03/27 03:34:10;;;;;;;8.80;5.93;;;11.40;96.70;;;;;;5001040;28;20060;-75
2022/03/27 03:36:38;;;;;;;10.15;5.80;;;11.30;96.70;;;;;;5004008;28;20093;-75
2022/03/27 03:39:08;;;;;;;7.63;5.65;;;11.30;96.70;;;;;;4986017;28;20054;-75
2022/03/27 03:41:36;;;;;;;6.78;5.70;;;11.30;96.70;;;;;;5000678;28;20113;-75
2022/03/27 03:44:22;;;;;;;8.45;6.28;;;11.30;96.70;;;;;;4984157;28;20496;-75
2022/03/27 03:46:51;;;;;;;11.23;6.65;;;11.30;96.70;;;;;;4989246;28;20121;-76
2022/03/27 03:49:20;;;;;;;7.90;5.80;;;11.30;96.70;;;;;;4982856;28;20078;-74
2022/03/27 03:51:48;;;;;;;8.85;5.53;;;11.30;96.70;;;;;;4971141;28;20038;-75
2022/03/27 03:54:18;;;;;;;7.85;5.45;;;11.30;96.70;;;;;;4982858;28;20606;-75
2022/03/27 03:56:47;;;;;;;9.30;5.97;;;11.20;96.70;;;;;;4971633;28;20054;-75
2022/03/27 03:59:15;;;;;;;9.93;5.63;;;11.20;96.70;;;;;;5000452;28;20572;-75
2022/03/27 04:01:56;;;;;;;7.45;5.95;;;11.10;96.70;;;;;;4987796;28;20042;-75
2022/03/27 04:04:25;;;;;;;9.93;6.10;;;11.00;96.70;;;;;;4984163;28;20167;-75
2022/03/27 04:06:53;;;;;;;7.57;6.00;;;10.90;96.70;;;;;;5000899;28;20042;-75
2022/03/27 04:09:23;;;;;;;11.25;6.10;;;10.90;96.70;;;;;;4999364;28;20053;-75
2022/03/27 04:11:51;;;;;;;13.05;6.78;;;10.80;96.70;;;;;;5003730;28;20054;-76
2022/03/27 04:14:20;;;;;;;8.73;6.15;;;10.90;96.70;;;;;;4966662;28;20064;-75
2022/03/27 04:16:48;;;;;;;8.07;5.88;;;11.00;96.70;;;;;;4983107;28;20057;-75
2022/03/27 04:19:16;;;;;;;9.82;6.15;;;11.00;96.70;;;;;;4967273;28;20049;-75
2022/03/27 04:21:44;;;;;;;6.90;5.30;;;10.90;96.70;;;;;;4984427;28;20081;-75
2022/03/27 04:24:13;;;;;;;7.28;5.55;;;10.90;96.70;;;;;;4983295;28;20043;-75
2022/03/27 04:26:42;;;;;;;8.02;5.97;;;10.90;96.70;;;;;;4969394;28;20051;-75
2022/03/27 04:29:11;;;;;;;8.90;5.90;;;10.80;96.70;;;;;;5000459;28;20046;-76
2022/03/27 04:31:40;;;;;;;9.73;5.55;;;10.90;96.70;;;;;;4999593;28;20120;-75
2022/03/27 04:34:09;;;;;;;7.53;6.07;;;10.90;96.70;;;;;;4987055;28;20132;-75
2022/03/27 04:36:37;;;;;;;8.02;5.90;;;10.90;96.70;;;;;;4984197;28;20090;-75
2022/03/27 04:39:06;;;;;;;9.50;6.50;;;10.70;96.70;;;;;;5014793;28;20062;-75
2022/03/27 04:41:34;;;;;;;9.50;5.88;;;10.70;96.70;;;;;;4983883;28;20038;-75
2022/03/27 04:44:04;;;;;;;11.38;5.78;;;10.80;96.70;;;;;;4985054;28;20153;-75
2022/03/27 04:46:33;;;;;;;9.35;5.95;;;10.90;96.70;;;;;;4987278;28;20042;-75
2022/03/27 04:49:01;;;;;;;7.75;6.10;;;10.90;96.70;;;;;;4984508;28;20084;-75
2022/03/27 04:51:30;;;;;;;10.23;6.10;;;10.90;96.70;;;;;;4966936;28;20417;-75
2022/03/27 04:53:58;;;;;;;10.98;7.25;;;10.90;96.70;;;;;;5001191;28;20137;-75
2022/03/27 04:56:27;;;;;;;11.15;7.38;;;10.90;96.70;;;;;;4999404;28;20082;-75
2022/03/27 04:58:57;;;;;;;12.10;7.22;;;10.90;96.70;;;;;;4990744;28;20042;-80
2022/03/27 05:01:26;;;;;;;10.68;6.72;;;10.90;96.70;;;;;;4986167;28;20050;-79
2022/03/27 05:03:57;;;;;;;9.65;6.45;;;10.90;96.70;;;;;;5005220;28;20057;-77
2022/03/27 05:06:25;;;;;;;8.45;6.03;;;10.90;96.70;;;;;;4987096;28;20066;-75
2022/03/27 05:08:58;;;;;;;13.35;5.70;;;10.90;96.70;;;;;;5000439;28;20132;-76
2022/03/27 05:11:28;;;;;;;11.63;6.32;;;10.90;96.70;;;;;;4999498;28;20059;-76
2022/03/27 05:13:56;;;;;;;8.63;5.90;;;10.80;96.70;;;;;;5015506;28;20065;-76
2022/03/27 05:16:26;;;;;;;11.13;6.45;;;10.80;96.70;;;;;;4998206;28;20038;-75
2022/03/27 05:18:55;;;;;;;9.02;6.20;;;10.90;96.70;;;;;;4983528;28;20487;-76
2022/03/27 05:21:23;;;;;;;8.40;6.00;;;10.80;96.70;;;;;;4985077;28;20066;-76
2022/03/27 05:23:51;;;;;;;7.47;5.95;;;10.80;96.70;;;;;;5000797;28;20046;-76
2022/03/27 05:26:20;;;;;;;6.38;5.43;;;10.80;96.70;;;;;;4999499;28;20046;-76
2022/03/27 05:28:48;;;;;;;8.82;6.18;;;10.80;96.70;;;;;;4982277;28;20046;-75
2022/03/27 05:31:16;;;;;;;7.05;5.68;;;10.80;96.70;;;;;;4982150;28;20047;-76
2022/03/27 05:33:46;;;;;;;8.55;6.50;;;10.80;96.70;;;;;;4987498;28;20502;-75
2022/03/27 05:36:14;;;;;;;10.15;5.90;;;10.90;96.70;;;;;;5003260;28;20403;-76
2022/03/27 05:38:43;;;;;;;10.15;6.30;;;10.90;96.70;;;;;;4994201;28;20104;-76
2022/03/27 05:41:11;;;;;;;11.30;6.43;;;11.00;96.70;;;;;;4970299;28;20070;-76
2022/03/27 05:43:39;;;;;;;9.75;6.88;;;10.90;96.70;;;;;;5025551;28;20416;-76
2022/03/27 05:46:07;;;;;;;8.40;6.25;;;11.00;96.70;;;;;;4986504;28;20500;-77
2022/03/27 05:48:35;;;;;;;9.77;7.18;;;10.90;96.70;;;;;;4987834;28;20050;-76
2022/03/27 05:51:05;;;;;;;14.35;10.95;;;11.00;96.70;;;;;;4986415;28;21313;-75
2022/03/27 05:53:33;;;;;;;9.48;8.35;;;11.00;96.70;;;;;;4973849;28;20050;-76
2022/03/27 05:56:02;;;;;;;10.80;7.80;;;11.00;96.70;;;;;;5004314;28;20094;-76
2022/03/27 05:58:30;;;;;;;10.15;7.65;;;10.90;96.70;;;;;;4990468;28;20408;-76
2022/03/27 06:00:58;;;;;;;12.00;7.90;;;10.90;96.70;;;;;;4987453;28;20030;-76
2022/03/27 06:03:27;;;;;;;10.98;9.38;;;11.00;96.70;;;;;;4987736;28;20573;-77
2022/03/27 06:05:55;;;;;;;12.55;9.15;;;11.10;96.70;;;;;;5004389;28;20042;-76
2022/03/27 06:08:24;;;;;;;12.07;7.63;;;11.00;96.70;;;;;;4989668;28;20681;-76
2022/03/27 06:10:52;;;;;;;9.07;6.70;;;11.10;96.70;;;;;;4986896;28;20518;-77
2022/03/27 06:13:21;;;;;;;10.35;7.53;;;11.20;96.70;;;;;;4988594;28;20499;-76
2022/03/27 06:15:51;;;;;;;10.75;8.68;;;11.30;96.70;;;;;;4984990;28;20046;-76
2022/03/27 06:18:19;;;;;;;10.73;7.57;;;11.30;96.70;;;;;;4984690;28;20211;-79
2022/03/27 06:20:47;;;;;;;9.40;7.25;;;11.20;96.70;;;;;;5003058;28;20468;-79
2022/03/27 06:23:16;;;;;;;10.07;6.72;;;11.30;96.70;;;;;;4989708;28;20134;-78
2022/03/27 06:25:45;;;;;;;10.13;6.15;;;11.40;96.70;;;;;;4991110;28;20046;-78
2022/03/27 06:28:13;;;;;;;7.90;6.00;;;11.40;96.70;;;;;;4986553;28;20161;-79
2022/03/27 06:30:42;;;;;;;7.40;6.20;;;11.50;96.70;;;;;;5005282;28;20056;-79
2022/03/27 06:33:10;;;;;;;8.77;5.78;;;11.60;96.70;;;;;;4986864;28;20816;-79
2022/03/27 06:35:39;;;;;;;8.50;6.32;;;11.70;96.70;;;;;;4972955;28;20282;-79
2022/03/27 06:38:08;;;;;;;10.13;6.35;;;11.60;96.70;;;;;;4981819;28;20054;-78
2022/03/27 06:40:37;;;;;;;12.15;6.22;;;11.70;96.70;;;;;;4984023;28;20728;-78
2022/03/27 06:43:07;;;;;;;8.07;5.78;;;11.80;96.70;;;;;;4985592;28;20051;-79
2022/03/27 06:45:38;;;;;;;8.40;5.95;;;12.00;96.70;;;;;;5002651;28;20061;-78
2022/03/27 06:48:07;;;;;;;7.32;6.00;;;11.90;96.70;;;;;;4982302;28;20816;-79
2022/03/27 06:50:36;;;;;;;8.50;5.55;;;11.90;96.70;;;;;;5000849;28;20046;-78
2022/03/27 06:53:07;;;;;;;10.30;5.88;;;11.90;96.70;;;;;;4967015;28;20125;-78
2022/03/27 06:55:35;;;;;;;8.32;6.10;;;12.00;96.70;;;;;;4972714;28;20528;-79
2022/03/27 06:58:06;;;;;;;6.95;6.07;;;12.00;96.70;;;;;;4995194;28;20058;-78
2022/03/27 07:03:21;;;;;;;;;;;12.10;96.70;;;;;;4968465;28;20074;-78
2022/03/27 07:05:50;;;;;;;9.85;6.22;;;12.10;96.70;;;;;;5002291;28;19926;-79
2022/03/27 07:08:20;;;;;;;7.65;5.88;;;12.30;96.70;;;;;;4969032;28;20043;-80
2022/03/27 07:10:50;;;;;;;7.93;6.32;;;12.40;96.70;;;;;;4967938;28;20043;-78
2022/03/27 07:13:23;;;;;;;9.57;6.53;;;12.40;96.70;;;;;;4983941;28;20057;-79
2022/03/27 07:15:52;;;;;;;14.68;7.65;;;12.50;96.70;;;;;;4986392;28;20046;-78
2022/03/27 07:18:21;;;;;;;8.00;6.18;;;12.60;96.70;;;;;;4980794;28;20046;-78
2022/03/27 07:20:50;;;;;;;9.93;6.78;;;12.70;96.70;;;;;;4968576;28;20055;-79
2022/03/27 07:23:20;;;;;;;8.82;7.07;;;12.80;96.70;;;;;;5000225;28;20658;-79
2022/03/27 07:25:52;;;;;;;9.80;6.90;;;12.90;96.70;;;;;;4999343;28;20058;-78
2022/03/27 07:28:22;;;;;;;10.63;7.25;;;13.00;96.70;;;;;;4970751;28;20057;-78
2022/03/27 07:30:51;;;;;;;9.48;6.85;;;13.00;96.70;;;;;;4982510;28;20532;-79
2022/03/27 07:33:21;;;;;;;11.80;7.13;;;13.10;96.70;;;;;;5001934;28;20766;-78
2022/03/27 07:35:50;;;;;;;9.13;7.22;;;13.10;96.70;;;;;;4989001;28;20047;-79
2022/03/27 07:38:18;;;;;;;12.38;7.50;;;13.20;96.70;;;;;;4984866;28;20056;-79
2022/03/27 07:40:47;;;;;;;10.13;6.85;;;13.30;96.70;;;;;;4987076;28;20056;-78
2022/03/27 07:43:16;;;;;;;11.15;6.47;;;13.40;96.70;;;;;;4989468;28;20049;-78
2022/03/27 07:45:46;;;;;;;11.75;7.03;;;13.50;96.70;;;;;;5000708;28;20050;-79
2022/03/27 07:48:15;;;;;;;10.43;7.32;;;13.60;96.70;;;;;;4987100;28;20052;-79
2022/03/27 07:50:46;;;;;;;9.18;6.93;;;13.60;96.70;;;;;;4986646;28;20532;-78
2022/03/27 07:53:14;;;;;;;17.30;7.60;;;13.70;96.70;;;;;;5003229;28;20142;-79
2022/03/27 07:55:43;;;;;;;11.25;7.60;;;13.80;96.70;;;;;;4985561;28;20073;-79
2022/03/27 07:58:11;;;;;;;12.43;8.13;;;13.80;96.70;;;;;;5006495;28;20123;-79
2022/03/27 08:00:40;;;;;;;8.98;7.65;;;13.90;96.70;;;;;;4967677;28;20034;-79
2022/03/27 08:03:11;;;;;;;12.25;8.23;;;14.00;96.70;;;;;;4986963;28;20045;-78
2022/03/27 08:05:42;;;;;;;9.02;7.38;;;14.00;96.70;;;;;;4999843;28;20492;-79
2022/03/27 08:08:10;;;;;;;12.07;8.27;;;14.20;96.70;;;;;;5001984;28;20510;-78
2022/03/27 08:10:39;;;;;;;11.43;8.35;;;14.30;96.70;;;;;;4984150;28;20357;-78
2022/03/27 08:13:08;;;;;;;13.43;8.90;;;14.40;96.70;;;;;;5004511;28;20050;-79
2022/03/27 08:15:36;;;;;;;13.73;9.27;;;14.50;96.70;;;;;;5001731;28;20049;-79
2022/03/27 08:18:05;;;;;;;10.95;7.75;;;14.60;96.70;;;;;;4985451;28;20105;-76
2022/03/27 08:20:38;;;;;;;12.75;9.07;;;14.80;96.70;;;;;;4981596;28;20052;-76
2022/03/27 08:23:12;;;;;;;13.23;7.97;;;14.90;96.70;;;;;;5000419;28;20526;-76
2022/03/27 08:28:27;;;;;;;12.38;8.60;;;15.20;95.30;;;;;;4981258;28;20046;-76
2022/03/27 08:30:56;;;;;;;13.80;8.82;;;15.30;95.50;;;;;;4965828;28;20049;-82
2022/03/27 08:33:24;;;;;;;11.90;8.05;;;15.40;95.20;;;;;;4998258;28;20563;-77
2022/03/27 08:35:56;;;;;;;10.80;8.40;;;15.50;95.40;;;;;;4984908;28;20124;-76
2022/03/27 08:38:25;;;;;;;11.27;8.27;;;15.60;95.50;;;;;;4983743;28;20062;-77
2022/03/27 08:40:55;;;;;;;9.50;7.50;;;15.70;96.70;;;;;;4967821;28;20050;-77
2022/03/27 08:43:25;;;;;;;11.93;7.18;;;15.80;96.10;;;;;;4985458;28;20046;-77
2022/03/27 08:45:54;;;;;;;8.35;7.20;;;15.90;96.70;;;;;;4982706;28;20046;-76
2022/03/27 08:48:23;;;;;;;10.10;7.07;;;16.00;96.40;;;;;;4980876;28;20352;-78
2022/03/27 08:51:07;;;;;;;11.35;8.10;;;16.10;95.80;;;;;;4998276;28;20049;-78
2022/03/27 08:53:43;;;;;;;10.75;7.38;;;16.10;93.90;;;;;;4979758;28;20053;-80
2022/03/27 08:56:12;;;;;;;13.48;7.28;;;16.20;93.00;;;;;;5020938;28;20508;-80
2022/03/27 08:58:42;;;;;;;33.85;9.15;;;16.30;92.30;;;;;;4998870;28;20077;-77
2022/03/27 09:01:11;;;;;;;18.48;8.43;;;16.30;92.90;;;;;;5016980;28;20146;-77
2022/03/27 09:03:40;;;;;;;12.48;7.25;;;16.40;93.00;;;;;;4983058;28;20214;-77
2022/03/27 09:06:10;;;;;;;9.48;7.30;;;16.50;92.10;;;;;;4986634;28;20048;-79
2022/03/27 09:08:39;;;;;;;11.48;7.63;;;16.60;91.60;;;;;;4984513;28;20105;-77
2022/03/27 09:11:16;;;;;;;10.15;6.10;;;16.70;92.00;;;;;;4985250;28;20077;-76
2022/03/27 09:13:48;;;;;;;10.93;8.32;;;16.80;90.10;;;;;;4982730;28;20039;-76
2022/03/27 09:16:17;;;;;;;10.68;6.90;;;16.90;89.90;;;;;;4967750;28;20531;-76
2022/03/27 09:18:48;;;;;;;8.77;6.35;;;17.00;89.20;;;;;;4985365;28;20088;-77
2022/03/27 09:21:20;;;;;;;10.07;5.95;;;17.10;86.00;;;;;;5001170;28;20145;-76
2022/03/27 09:23:53;;;;;;;8.60;6.68;;;17.10;85.60;;;;;;4984276;28;20069;-76
2022/03/27 09:26:22;;;;;;;9.23;7.22;;;17.20;86.30;;;;;;4983152;28;20393;-77
2022/03/27 09:28:55;;;;;;;11.60;8.30;;;17.20;86.10;;;;;;5000758;28;20069;-77
2022/03/27 09:31:26;;;;;;;8.63;7.63;;;17.20;88.70;;;;;;4997003;28;20101;-77
2022/03/27 09:33:56;;;;;;;8.68;7.25;;;17.30;88.60;;;;;;5001380;28;20488;-77
2022/03/27 09:36:27;;;;;;;7.93;6.80;;;17.40;87.00;;;;;;4984958;28;20054;-77
2022/03/27 09:39:04;;;;;;;11.23;7.60;;;17.50;85.40;;;;;;4987328;28;20062;-77
2022/03/27 09:41:38;;;;;;;10.18;7.00;;;17.60;85.10;;;;;;4989478;28;20509;-77
2022/03/27 09:44:09;;;;;;;7.97;6.68;;;17.60;84.40;;;;;;5004751;28;20496;-81
2022/03/27 09:46:57;;;;;;;10.05;7.40;;;17.80;83.40;;;;;;5000139;28;20046;-77
2022/03/27 09:49:42;;;;;;;9.23;7.45;;;17.90;83.30;;;;;;5000497;28;20087;-77
2022/03/27 09:52:14;;;;;;;10.00;7.85;;;17.90;83.10;;;;;;4966476;28;20560;-76
2022/03/27 09:54:53;;;;;;;10.18;8.10;;;18.00;86.00;;;;;;4980045;28;20050;-77
2022/03/27 09:57:23;;;;;;;8.65;7.53;;;18.10;85.90;;;;;;4999620;28;20072;-78
2022/03/27 09:59:53;;;;;;;10.68;7.63;;;18.20;85.80;;;;;;4982642;28;20049;-76
2022/03/27 10:02:25;;;;;;;8.80;6.68;;;18.20;85.70;;;;;;5015975;28;20181;-75
2022/03/27 10:04:59;;;;;;;8.85;7.47;;;18.30;85.40;;;;;;4983805;28;20053;-75
2022/03/27 10:07:36;;;;;;;8.38;7.47;;;18.40;85.70;;;;;;4986067;28;20046;-76
2022/03/27 10:10:06;;;;;;;11.25;7.70;;;18.50;85.00;;;;;;4998742;28;20042;-74
2022/03/27 10:12:38;;;;;;;12.80;7.68;;;18.60;84.80;;;;;;4986582;28;20055;-75
2022/03/27 10:15:09;;;;;;;11.18;7.63;;;18.70;83.00;;;;;;4997619;28;20058;-75
2022/03/27 10:17:39;;;;;;;9.75;7.15;;;18.80;82.20;;;;;;4987754;28;20055;-75
2022/03/27 10:20:10;;;;;;;9.40;7.28;;;19.00;82.00;;;;;;4985990;28;20042;-74
2022/03/27 10:22:42;;;;;;;11.25;8.30;;;19.10;82.50;;;;;;4971955;28;20050;-76
2022/03/27 10:25:14;;;;;;;12.20;8.40;;;19.20;82.50;;;;;;4998641;28;20058;-76
2022/03/27 10:27:45;;;;;;;13.23;9.20;;;19.20;83.20;;;;;;5006412;28;20066;-78
2022/03/27 10:30:15;;;;;;;11.93;8.13;;;19.30;83.50;;;;;;4988389;28;20121;-78
2022/03/27 10:32:45;;;;;;;9.68;7.80;;;19.40;83.60;;;;;;5005983;28;20137;-79
2022/03/27 10:35:33;;;;;;;10.98;7.03;;;19.50;82.70;;;;;;5017714;28;20061;-77
2022/03/27 10:38:10;;;;;;;;;;;19.70;83.10;;;;;;4997329;28;20058;-77
2022/03/27 10:40:49;;;;;;;10.45;6.70;;;19.90;83.30;;;;;;4968712;28;19926;-79
2022/03/27 10:43:25;;;;;;;7.63;6.18;;;20.10;82.80;;;;;;4980128;28;20073;-79
2022/03/27 10:46:12;;;;;;;8.00;6.15;;;20.30;81.70;;;;;;4968258;28;20047;-76
2022/03/27 10:48:42;;;;;;;11.63;6.88;;;20.40;80.00;;;;;;4997281;28;20845;-76
2022/03/27 10:51:11;;;;;;;7.72;6.60;;;20.70;79.40;;;;;;4984416;28;20496;-77
2022/03/27 10:54:01;;;;;;;7.32;6.22;;;20.90;77.90;;;;;;4966593;28;20105;-81
2022/03/27 10:56:35;;;;;;;24.27;7.28;;;20.90;73.80;;;;;;5004607;28;20055;-78
2022/03/27 10:59:12;;;;;;;31.70;9.10;;;20.80;71.30;;;;;;4983207;28;20046;-78
2022/03/27 11:01:43;;;;;;;10.75;5.88;;;20.80;69.80;;;;;;4966662;28;20042;-80
2022/03/27 11:04:12;;;;;;;9.52;5.85;;;20.90;68.30;;;;;;4971485;28;20047;-80
2022/03/27 11:06:43;;;;;;;12.40;5.22;;;20.90;68.80;;;;;;4985096;28;20072;-80
2022/03/27 11:09:32;;;;;;;6.85;4.90;;;20.80;68.60;;;;;;4967477;28;20047;-81
2022/03/27 11:12:02;;;;;;;7.03;4.97;;;20.80;67.50;;;;;;4969290;28;20050;-82
2022/03/27 11:15:00;;;;;;;7.35;5.30;;;21.00;67.30;;;;;;5000737;28;20046;-80
2022/03/27 11:18:08;;;;;;;11.60;5.57;;;21.30;67.30;;;;;;4991053;28;20075;-81
2022/03/27 11:20:55;;;;;;;7.65;5.40;;;21.40;67.20;;;;;;4966022;28;20564;-77
2022/03/27 11:23:37;;;;;;;7.13;5.15;;;21.70;65.20;;;;;;4966067;28;20129;-79
2022/03/27 11:26:34;;;;;;;9.48;5.63;;;21.90;64.10;;;;;;4980168;28;20094;-82
2022/03/27 11:29:18;;;;;;;7.53;5.40;;;22.00;63.70;;;;;;4970854;28;20046;-80
2022/03/27 11:32:07;;;;;;;7.63;5.47;;;22.10;64.10;;;;;;4983310;28;20054;-79
2022/03/27 11:34:37;;;;;;;6.57;5.68;;;21.90;64.50;;;;;;5010437;28;20051;-78
2022/03/27 11:37:22;;;;;;;8.95;5.30;;;21.90;65.10;;;;;;4972920;28;20516;-80
2022/03/27 11:39:51;;;;;;;9.20;5.80;;;22.10;63.50;;;;;;4988670;28;20418;-80
2022/03/27 11:42:29;;;;;;;7.53;6.18;;;22.20;63.30;;;;;;4970343;28;20089;-81
2022/03/27 11:45:17;;;;;;;13.77;6.68;;;22.20;63.40;;;;;;4984690;28;20145;-83
2022/03/27 11:47:47;;;;;;;11.82;5.72;;;22.00;63.50;;;;;;5004644;28;20061;-80
2022/03/27 11:50:21;;;;;;;8.80;5.93;;;22.10;64.50;;;;;;4987765;28;20098;-80
2022/03/27 11:52:49;;;;;;;6.28;5.40;;;22.40;65.40;;;;;;5024629;28;20042;-78
2022/03/27 11:55:21;;;;;;;7.45;5.53;;;22.70;64.60;;;;;;4986224;28;20644;-80
2022/03/27 11:57:53;;;;;;;6.88;5.40;;;22.90;63.60;;;;;;4986301;28;20120;-87
2022/03/27 12:00:38;;;;;;;8.57;5.45;;;23.10;62.80;;;;;;4968475;28;20097;-80
2022/03/27 12:03:14;;;;;;;6.82;6.07;;;23.20;63.00;;;;;;4964071;28;20564;-79
2022/03/27 12:05:43;;;;;;;8.02;5.80;;;23.40;62.60;;;;;;4973175;28;20039;-80
2022/03/27 12:08:21;;;;;;;6.80;5.90;;;23.50;63.00;;;;;;5007040;28;20605;-81
2022/03/27 12:10:56;;;;;;;7.43;5.97;;;23.50;63.10;;;;;;4984828;28;20043;-81
2022/03/27 12:13:28;;;;;;;11.30;6.10;;;23.20;62.20;;;;;;5001021;28;20413;-82
2022/03/27 12:15:56;;;;;;;6.60;5.05;;;23.10;62.50;;;;;;5006074;28;20053;-81
2022/03/27 12:18:29;;;;;;;8.23;5.72;;;23.00;62.50;;;;;;5005584;28;20039;-81
2022/03/27 12:20:59;;;;;;;6.88;5.53;;;23.30;62.80;;;;;;5015800;28;20185;-82
2022/03/27 12:23:28;;;;;;;8.23;6.07;;;23.50;62.40;;;;;;5005472;28;20046;-82
2022/03/27 12:29:40;;;;;;;7.68;5.78;;;23.50;61.50;;;;;;4985401;28;20053;-82
2022/03/27 12:32:04;;;;;;;6.03;5.32;;;23.50;62.00;;;;;;4990340;28;20268;-82
2022/03/27 12:34:35;;;;;;;7.32;5.65;;;23.50;61.70;;;;;;4987734;28;20042;-83
2022/03/27 12:37:09;;;;;;;6.63;5.93;;;23.40;61.60;;;;;;5016097;28;20089;-84
2022/03/27 12:39:39;;;;;;;7.10;5.18;;;23.40;61.10;;;;;;4987541;28;20443;-82
2022/03/27 12:42:27;;;;;;;6.40;5.20;;;23.40;60.70;;;;;;4984321;28;20042;-83
2022/03/27 12:45:02;;;;;;;7.07;5.63;;;23.40;60.50;;;;;;5005748;28;20054;-81
2022/03/27 12:47:32;;;;;;;6.38;5.10;;;23.40;60.70;;;;;;4987812;28;20130;-82
2022/03/27 12:50:00;;;;;;;7.70;5.50;;;23.50;60.30;;;;;;4973462;28;20122;-83
2022/03/27 12:52:29;;;;;;;6.63;4.90;;;23.50;59.80;;;;;;4973251;28;20074;-82
2022/03/27 12:54:59;;;;;;;8.68;5.30;;;23.50;60.40;;;;;;4970384;28;20038;-83
2022/03/27 12:57:50;;;;;;;7.03;5.15;;;23.30;59.80;;;;;;4988822;28;20046;-83
2022/03/27 13:00:23;;;;;;;5.93;5.32;;;23.40;60.00;;;;;;4972764;28;20074;-82
2022/03/27 13:03:10;;;;;;;6.65;5.43;;;23.40;60.50;;;;;;5007785;28;20089;-86
2022/03/27 13:05:39;;;;;;;6.32;5.28;;;23.50;58.70;;;;;;5000786;28;20057;-81
2022/03/27 13:08:08;;;;;;;6.22;5.43;;;23.50;59.30;;;;;;4987834;28;20082;-89
2022/03/27 13:10:40;;;;;;;6.07;4.82;;;23.60;60.20;;;;;;4977612;28;20039;-84